Time;durP1;ratioP1;P1;durP2;ratioP2;P2;SDS_P1;SDS_P2;PMS_P1;PMS_P2;Temp;Humidity;BMP_temperature;BMP_pressure;BME280_temperature;BME280_humidity;BME280_pressure;Samples;Min_cycle;Max_cycle;Signal;HPM_P1;HPM_P2
2022/09/22 00:02:05;;;;;;;;;;;10.30;99.90;;;;;;5044725;28;19980;-83
2022/09/22 00:04:31;;;;;;;;;;;10.30;99.90;;;;;;5042986;28;19909;-83
2022/09/22 00:06:56;;;;;;;;;;;10.30;99.90;;;;;;5043676;28;20288;-83
2022/09/22 00:09:22;;;;;;;;;;;10.30;99.90;;;;;;5061980;28;20106;-82
2022/09/22 00:11:49;;;;;;;;;;;10.20;99.90;;;;;;5062026;28;19915;-82
2022/09/22 00:14:16;;;;;;;;;;;10.20;99.90;;;;;;5043580;28;19919;-83
2022/09/22 00:16:46;;;;;;;;;;;10.30;99.90;;;;;;5062104;28;19964;-82
2022/09/22 00:19:16;;;;;;;;;;;10.20;99.90;;;;;;5061038;28;19908;-82
2022/09/22 00:21:42;;;;;;;;;;;10.20;99.90;;;;;;5060672;28;19913;-82
2022/09/22 00:24:08;;;;;;;;;;;10.10;99.90;;;;;;5042742;28;19909;-82
2022/09/22 00:26:34;;;;;;;;;;;10.10;99.90;;;;;;5061499;28;19959;-83
2022/09/22 00:29:00;;;;;;;;;;;10.10;99.90;;;;;;5060725;28;20397;-82
2022/09/22 00:31:26;;;;;;;;;;;10.10;99.90;;;;;;5061460;28;19956;-82
2022/09/22 00:33:53;;;;;;;;;;;10.10;99.90;;;;;;5042103;28;20019;-82
2022/09/22 00:36:20;;;;;;;;;;;10.10;99.90;;;;;;5060936;28;20000;-82
2022/09/22 00:38:49;;;;;;;;;;;10.10;99.90;;;;;;5060467;28;19932;-83
2022/09/22 00:41:17;;;;;;;;;;;10.10;99.90;;;;;;5042158;28;19916;-82
2022/09/22 00:43:45;;;;;;;;;;;10.10;99.90;;;;;;5041929;28;19913;-83
2022/09/22 00:46:14;;;;;;;;;;;10.00;99.90;;;;;;5041633;28;20019;-82
2022/09/22 00:48:44;;;;;;;;;;;10.00;99.90;;;;;;5061586;28;20519;-83
2022/09/22 00:51:11;;;;;;;;;;;10.10;99.90;;;;;;5041775;28;19916;-83
2022/09/22 00:53:37;;;;;;;;;;;10.00;99.90;;;;;;5059650;28;19908;-82
2022/09/22 00:56:06;;;;;;;;;;;10.00;99.90;;;;;;5060077;28;20330;-82
2022/09/22 00:58:36;;;;;;;;;;;10.10;99.90;;;;;;5041457;28;19909;-82
2022/09/22 01:01:03;;;;;;;;;;;10.10;99.90;;;;;;5041781;28;20382;-83
2022/09/22 01:03:28;;;;;;;;;;;10.10;99.90;;;;;;5041291;28;19932;-82
2022/09/22 01:05:56;;;;;;;;;;;10.10;99.90;;;;;;5059636;28;19909;-83
2022/09/22 01:08:22;;;;;;;;;;;10.10;99.90;;;;;;5059729;28;19909;-83
2022/09/22 01:10:48;;;;;;;;;;;10.10;99.90;;;;;;5060419;28;19940;-82
2022/09/22 01:13:13;;;;;;;;;;;10.10;99.90;;;;;;5059456;28;20526;-83
2022/09/22 01:15:48;;;;;;;;;;;10.00;99.90;;;;;;5058953;28;20284;-82
2022/09/22 01:18:27;;;;;;;;;;;10.00;99.90;;;;;;5058768;28;19908;-83
2022/09/22 01:21:01;;;;;;;;;;;10.00;99.90;;;;;;5039922;28;20427;-83
2022/09/22 01:23:54;;;;;;;;;;;9.90;99.90;;;;;;5058637;28;19928;-82
2022/09/22 01:26:52;;;;;;;;;;;9.90;99.90;;;;;;5039578;28;19916;-83
2022/09/22 01:29:18;;;;;;;;;;;9.90;99.90;;;;;;5023926;28;20403;-82
2022/09/22 01:31:48;;;;;;;;;;;9.90;99.90;;;;;;5057480;28;19909;-82
2022/09/22 01:34:14;;;;;;;;;;;9.90;99.90;;;;;;5057627;28;19975;-83
2022/09/22 01:36:39;;;;;;;;;;;9.90;99.90;;;;;;5057848;28;19908;-83
2022/09/22 01:39:15;;;;;;;;;;;9.90;99.90;;;;;;5057550;28;20435;-82
2022/09/22 01:42:01;;;;;;;;;;;9.80;99.90;;;;;;5057516;28;19913;-82
2022/09/22 01:44:30;;;;;;;;;;;9.90;99.90;;;;;;5039747;28;19909;-83
2022/09/22 01:46:59;;;;;;;;;;;9.80;99.90;;;;;;5058029;28;19917;-81
2022/09/22 01:49:27;;;;;;;;;;;9.90;99.90;;;;;;5057544;28;19909;-82
2022/09/22 01:51:58;;;;;;;;;;;9.80;99.90;;;;;;5057424;28;19912;-82
2022/09/22 01:54:31;;;;;;;;;;;9.80;99.90;;;;;;5057911;28;20030;-82
2022/09/22 01:57:13;;;;;;;;;;;9.80;99.90;;;;;;5055866;28;19991;-82
2022/09/22 01:59:39;;;;;;;;;;;9.80;99.90;;;;;;5037521;28;19908;-82
2022/09/22 02:02:22;;;;;;;;;;;9.80;99.90;;;;;;5038310;28;20364;-82
2022/09/22 02:04:52;;;;;;;;;;;9.80;99.90;;;;;;5038056;28;19909;-82
2022/09/22 02:07:29;;;;;;;;;;;9.80;99.90;;;;;;5056174;28;19909;-82
2022/09/22 02:09:57;;;;;;;;;;;9.80;99.90;;;;;;5039199;28;20433;-82
2022/09/22 02:12:22;;;;;;;;;;;9.80;99.90;;;;;;5036712;28;20375;-82
2022/09/22 02:14:48;;;;;;;;;;;9.80;99.90;;;;;;5038563;28;19919;-82
2022/09/22 02:17:14;;;;;;;;;;;9.80;99.90;;;;;;5036979;28;19919;-82
2022/09/22 02:19:40;;;;;;;;;;;9.80;99.90;;;;;;5038663;28;19908;-81
2022/09/22 02:22:07;;;;;;;;;;;9.80;99.90;;;;;;5055989;28;20000;-82
2022/09/22 02:24:42;;;;;;;;;;;9.80;99.90;;;;;;5055899;28;19913;-82
2022/09/22 02:27:12;;;;;;;;;;;9.70;99.90;;;;;;5036902;28;19909;-82
2022/09/22 02:29:40;;;;;;;;;;;9.80;99.90;;;;;;5037197;28;19963;-83
2022/09/22 02:32:09;;;;;;;;;;;9.80;99.90;;;;;;5056726;28;19909;-82
2022/09/22 02:34:34;;;;;;;;;;;9.80;99.90;;;;;;5055057;28;20394;-82
2022/09/22 02:37:00;;;;;;;;;;;9.70;99.90;;;;;;5055714;28;19908;-82
2022/09/22 02:39:33;;;;;;;;;;;9.70;99.90;;;;;;5036376;28;19916;-81
2022/09/22 02:42:18;;;;;;;;;;;9.70;99.90;;;;;;5036467;28;19920;-82
2022/09/22 02:44:47;;;;;;;;;;;9.70;99.90;;;;;;5035454;28;19909;-83
2022/09/22 02:47:16;;;;;;;;;;;9.70;99.90;;;;;;5036154;28;20272;-83
2022/09/22 02:49:42;;;;;;;;;;;9.70;99.90;;;;;;5036134;28;20353;-82
2022/09/22 02:52:10;;;;;;;;;;;9.60;99.90;;;;;;5035603;28;19920;-82
2022/09/22 02:54:35;;;;;;;;;;;9.60;99.90;;;;;;5035964;28;19996;-82
2022/09/22 02:57:01;;;;;;;;;;;9.60;99.90;;;;;;5054304;28;20362;-82
2022/09/22 02:59:26;;;;;;;;;;;9.60;99.90;;;;;;5053849;28;19915;-82
2022/09/22 03:01:52;;;;;;;;;;;9.60;99.90;;;;;;5035877;28;20016;-82
2022/09/22 03:04:17;;;;;;;;;;;9.60;99.90;;;;;;5054698;28;19908;-82
2022/09/22 03:06:43;;;;;;;;;;;9.60;99.90;;;;;;5053569;28;19913;-82
2022/09/22 03:09:08;;;;;;;;;;;9.60;99.90;;;;;;5057469;28;20376;-82
2022/09/22 03:11:34;;;;;;;;;;;9.50;99.90;;;;;;5057478;28;20050;-82
2022/09/22 03:13:59;;;;;;;;;;;9.50;99.90;;;;;;5057466;28;19975;-82
2022/09/22 03:16:24;;;;;;;;;;;9.50;99.90;;;;;;5039401;28;19931;-82
2022/09/22 03:18:50;;;;;;;;;;;9.50;99.90;;;;;;5039170;28;19909;-82
2022/09/22 03:21:15;;;;;;;;;;;9.50;99.90;;;;;;5057583;28;19963;-84
2022/09/22 03:23:41;;;;;;;;;;;9.50;99.90;;;;;;5057353;28;19908;-82
2022/09/22 03:26:06;;;;;;;;;;;9.50;99.90;;;;;;5038754;28;19915;-82
2022/09/22 03:28:32;;;;;;;;;;;9.50;99.90;;;;;;5038747;28;19921;-82
2022/09/22 03:30:57;;;;;;;;;;;9.50;99.90;;;;;;5057275;28;19973;-82
2022/09/22 03:33:23;;;;;;;;;;;9.40;99.90;;;;;;5056912;28;19913;-82
2022/09/22 03:35:48;;;;;;;;;;;9.40;99.90;;;;;;5056940;28;19996;-82
2022/09/22 03:38:13;;;;;;;;;;;9.40;99.90;;;;;;5038703;28;19912;-82
2022/09/22 03:40:40;;;;;;;;;;;9.40;99.90;;;;;;5056755;28;19962;-82
2022/09/22 03:43:05;;;;;;;;;;;9.40;99.90;;;;;;5038443;28;19916;-82
2022/09/22 03:45:31;;;;;;;;;;;9.40;99.90;;;;;;5056494;28;19909;-82
2022/09/22 03:47:57;;;;;;;;;;;9.40;99.90;;;;;;5056348;28;19966;-82
2022/09/22 03:50:23;;;;;;;;;;;9.40;99.90;;;;;;5038209;28;19952;-82
2022/09/22 03:52:48;;;;;;;;;;;9.40;99.90;;;;;;5038129;28;19971;-82
2022/09/22 03:55:14;;;;;;;;;;;9.40;99.90;;;;;;5038115;28;19963;-82
2022/09/22 03:57:42;;;;;;;;;;;9.40;99.90;;;;;;5038174;28;20376;-81
2022/09/22 04:00:08;;;;;;;;;;;9.40;99.90;;;;;;5056070;28;20327;-82
2022/09/22 04:02:33;;;;;;;;;;;9.40;99.90;;;;;;5037786;28;19912;-83
2022/09/22 04:04:59;;;;;;;;;;;9.40;99.90;;;;;;5055909;28;20363;-82
2022/09/22 04:07:24;;;;;;;;;;;9.30;99.90;;;;;;5037768;28;20454;-82
2022/09/22 04:09:50;;;;;;;;;;;9.40;99.90;;;;;;5037821;28;19916;-82
2022/09/22 04:12:15;;;;;;;;;;;9.40;99.90;;;;;;5055657;28;20430;-82
2022/09/22 04:14:41;;;;;;;;;;;9.40;99.90;;;;;;5055767;28;19909;-82
2022/09/22 04:17:06;;;;;;;;;;;9.30;99.90;;;;;;5055365;28;19908;-82
2022/09/22 04:19:34;;;;;;;;;;;9.30;99.90;;;;;;5054733;28;19912;-82
2022/09/22 04:22:00;;;;;;;;;;;9.30;99.90;;;;;;5055428;28;19975;-82
2022/09/22 04:24:25;;;;;;;;;;;9.30;99.90;;;;;;5037431;28;19909;-82
2022/09/22 04:26:51;;;;;;;;;;;9.20;99.90;;;;;;5055087;28;19909;-82
2022/09/22 04:29:16;;;;;;;;;;;9.20;99.90;;;;;;5047423;23;20346;-83
2022/09/22 04:31:42;;;;;;;;;;;9.20;99.90;;;;;;5044477;28;19920;-82
2022/09/22 04:34:07;;;;;;;;;;;9.20;99.90;;;;;;5044380;28;19909;-85
2022/09/22 04:36:33;;;;;;;;;;;9.20;99.90;;;;;;5040690;28;19909;-83
2022/09/22 04:39:01;;;;;;;;;;;9.20;99.90;;;;;;5024918;28;19909;-82
2022/09/22 04:41:26;;;;;;;;;;;9.20;99.90;;;;;;5035945;28;20003;-81
2022/09/22 04:43:52;;;;;;;;;;;9.20;99.90;;;;;;5035823;28;19909;-83
2022/09/22 04:46:17;;;;;;;;;;;9.20;99.90;;;;;;5017184;28;19916;-82
2022/09/22 04:48:43;;;;;;;;;;;9.20;99.90;;;;;;5017471;28;19915;-82
2022/09/22 04:51:08;;;;;;;;;;;9.20;99.90;;;;;;5035256;28;19920;-83
2022/09/22 04:53:33;;;;;;;;;;;9.20;99.90;;;;;;5017724;28;19951;-82
2022/09/22 04:55:59;;;;;;;;;;;9.20;99.90;;;;;;5016988;28;19935;-82
2022/09/22 04:58:25;;;;;;;;;;;9.20;99.90;;;;;;5017105;28;19940;-82
2022/09/22 05:00:52;;;;;;;;;;;9.20;99.90;;;;;;5035098;28;20284;-81
2022/09/22 05:03:18;;;;;;;;;;;9.20;99.90;;;;;;5017628;28;19960;-81
2022/09/22 05:05:45;;;;;;;;;;;9.20;99.90;;;;;;5035148;28;20360;-82
2022/09/22 05:08:14;;;;;;;;;;;9.20;99.90;;;;;;5035229;28;20187;-81
2022/09/22 05:10:40;;;;;;;;;;;9.20;99.90;;;;;;5017517;28;19916;-82
2022/09/22 05:13:06;;;;;;;;;;;9.20;99.90;;;;;;5016874;28;19913;-81
2022/09/22 05:15:33;;;;;;;;;;;9.30;99.90;;;;;;5017025;28;19920;-81
2022/09/22 05:17:59;;;;;;;;;;;9.20;99.90;;;;;;5034888;28;19916;-82
2022/09/22 05:20:24;;;;;;;;;;;9.20;99.90;;;;;;5034876;28;19909;-82
2022/09/22 05:22:51;;;;;;;;;;;9.20;99.90;;;;;;5016925;28;19916;-81
2022/09/22 05:25:18;;;;;;;;;;;9.20;99.90;;;;;;5034674;28;19964;-82
2022/09/22 05:27:47;;;;;;;;;;;9.20;99.90;;;;;;5016500;28;19909;-82
2022/09/22 05:30:13;;;;;;;;;;;9.20;99.90;;;;;;5034275;28;19917;-83
2022/09/22 05:32:43;;;;;;;;;;;9.20;99.90;;;;;;5033689;28;19917;-82
2022/09/22 05:35:09;;;;;;;;;;;9.20;99.90;;;;;;5016436;28;20365;-82
2022/09/22 05:37:35;;;;;;;;;;;9.30;99.90;;;;;;5016121;28;20276;-81
2022/09/22 05:40:01;;;;;;;;;;;9.30;99.90;;;;;;5034156;28;19996;-83
2022/09/22 05:42:26;;;;;;;;;;;9.30;99.90;;;;;;5016492;28;20273;-82
2022/09/22 05:44:51;;;;;;;;;;;9.30;99.90;;;;;;5016552;28;20368;-82
2022/09/22 05:47:17;;;;;;;;;;;9.30;99.90;;;;;;5016119;28;19917;-83
2022/09/22 05:49:42;;;;;;;;;;;9.40;99.90;;;;;;5016033;28;19909;-83
2022/09/22 05:52:08;;;;;;;;;;;9.40;99.90;;;;;;5016102;28;19971;-82
2022/09/22 05:54:33;;;;;;;;;;;9.50;99.90;;;;;;5033755;28;20535;-81
2022/09/22 05:56:59;;;;;;;;;;;9.50;99.90;;;;;;5016008;28;19909;-82
2022/09/22 05:59:24;;;;;;;;;;;9.50;99.90;;;;;;5016131;28;20384;-82
2022/09/22 06:01:50;;;;;;;;;;;9.60;99.90;;;;;;5033642;28;19910;-83
2022/09/22 06:04:16;;;;;;;;;;;9.70;99.90;;;;;;5033817;28;19951;-83
2022/09/22 06:06:41;;;;;;;;;;;9.80;99.90;;;;;;5015515;28;20394;-81
2022/09/22 06:09:06;;;;;;;;;;;9.90;99.90;;;;;;5015691;28;19959;-81
2022/09/22 06:11:32;;;;;;;;;;;9.90;99.90;;;;;;5015734;28;19913;-82
2022/09/22 06:13:57;;;;;;;;;;;10.00;99.90;;;;;;5015750;28;19909;-82
2022/09/22 06:16:23;;;;;;;;;;;10.10;99.90;;;;;;5015311;28;20028;-81
2022/09/22 06:18:48;;;;;;;;;;;10.10;99.90;;;;;;5015616;28;19909;-82
2022/09/22 06:21:15;;;;;;;;;;;10.20;99.90;;;;;;5033711;28;19913;-83
2022/09/22 06:23:41;;;;;;;;;;;10.20;99.90;;;;;;5033342;28;19910;-83
2022/09/22 06:26:07;;;;;;;;;;;10.30;99.90;;;;;;5015371;28;20427;-82
2022/09/22 06:28:32;;;;;;;;;;;10.40;99.90;;;;;;5033302;28;20002;-83
2022/09/22 06:30:59;;;;;;;;;;;10.40;99.90;;;;;;5015457;28;20383;-81
2022/09/22 06:33:25;;;;;;;;;;;10.50;99.90;;;;;;5015567;28;20478;-81
2022/09/22 06:35:50;;;;;;;;;;;10.50;99.90;;;;;;5015218;28;19948;-83
2022/09/22 06:38:16;;;;;;;;;;;10.60;99.90;;;;;;5015296;28;19960;-83
2022/09/22 06:40:42;;;;;;;;;;;10.60;99.90;;;;;;5033057;28;20383;-81
2022/09/22 06:43:14;;;;;;;;;;;10.70;99.90;;;;;;5015129;28;19909;-82
2022/09/22 06:45:40;;;;;;;;;;;10.70;99.90;;;;;;5015167;28;19910;-82
2022/09/22 06:48:06;;;;;;;;;;;10.80;99.90;;;;;;5015242;28;19909;-83
2022/09/22 06:50:31;;;;;;;;;;;10.80;99.90;;;;;;5015199;28;19932;-83
2022/09/22 06:52:59;;;;;;;;;;;10.90;99.90;;;;;;5014853;28;20394;-83
2022/09/22 06:55:26;;;;;;;;;;;11.00;99.90;;;;;;5032672;28;19959;-82
2022/09/22 06:57:51;;;;;;;;;;;11.00;99.90;;;;;;5032427;28;19913;-82
2022/09/22 07:00:17;;;;;;;;;;;11.00;99.90;;;;;;5014740;28;19909;-82
2022/09/22 07:02:42;;;;;;;;;;;11.20;99.90;;;;;;5032638;28;19916;-82
2022/09/22 07:05:08;;;;;;;;;;;11.20;99.90;;;;;;5014799;28;19909;-82
2022/09/22 07:07:33;;;;;;;;;;;11.30;99.90;;;;;;5014648;28;19909;-82
2022/09/22 07:09:59;;;;;;;;;;;11.40;99.90;;;;;;5014824;28;19910;-83
2022/09/22 07:12:25;;;;;;;;;;;11.50;99.90;;;;;;5032794;28;19919;-82
2022/09/22 07:14:52;;;;;;;;;;;11.60;99.90;;;;;;5014662;28;19939;-82
2022/09/22 07:17:19;;;;;;;;;;;11.70;99.90;;;;;;5014476;28;19909;-82
2022/09/22 07:19:45;;;;;;;;;;;11.80;99.90;;;;;;5032341;28;19992;-82
2022/09/22 07:22:15;;;;;;;;;;;11.90;99.90;;;;;;5032508;28;19914;-82
2022/09/22 07:24:41;;;;;;;;;;;12.00;99.90;;;;;;5011957;28;19910;-86
2022/09/22 07:27:07;;;;;;;;;;;12.10;99.90;;;;;;4997493;28;20364;-85
2022/09/22 07:29:32;;;;;;;;;;;12.10;99.90;;;;;;5011417;28;19925;-86
2022/09/22 07:31:58;;;;;;;;;;;12.20;99.90;;;;;;4994598;28;19914;-85
2022/09/22 07:34:24;;;;;;;;;;;12.30;99.90;;;;;;4995237;28;19960;-85
2022/09/22 07:36:50;;;;;;;;;;;12.40;99.90;;;;;;5012407;28;19910;-86
2022/09/22 07:39:16;;;;;;;;;;;12.40;99.90;;;;;;5013339;28;19960;-85
2022/09/22 07:41:42;;;;;;;;;;;12.40;99.90;;;;;;5014174;28;19909;-84
2022/09/22 07:46:52;;;;;;;;;;;12.60;99.90;;;;;;5032396;28;19975;-86
2022/09/22 07:49:19;;;;;;;;;;;12.70;99.90;;;;;;5015364;28;19909;-83
2022/09/22 07:51:45;;;;;;;;;;;12.70;99.90;;;;;;5015626;28;20325;-85
2022/09/22 07:54:10;;;;;;;;;;;12.90;99.90;;;;;;5033282;28;19964;-86
2022/09/22 07:56:39;;;;;;;;;;;13.00;99.90;;;;;;5017192;28;20356;-87
2022/09/22 07:59:07;;;;;;;;;;;13.10;99.90;;;;;;5018131;28;20011;-83
2022/09/22 08:01:33;;;;;;;;;;;13.20;99.90;;;;;;5019334;28;19909;-85
2022/09/22 08:03:59;;;;;;;;;;;13.30;99.90;;;;;;5020136;28;20408;-85
2022/09/22 08:06:26;;;;;;;;;;;13.30;99.90;;;;;;5037471;28;19910;-86
2022/09/22 08:08:54;;;;;;;;;;;13.30;99.90;;;;;;5037856;28;20000;-84
2022/09/22 08:11:20;;;;;;;;;;;13.50;99.90;;;;;;5018855;28;19913;-84
2022/09/22 08:13:51;;;;;;;;;;;13.70;99.90;;;;;;5019093;28;19971;-83
2022/09/22 08:16:17;;;;;;;;;;;13.80;99.90;;;;;;5017844;28;19909;-86
2022/09/22 08:18:43;;;;;;;;;;;13.80;99.90;;;;;;5020055;28;20008;-84
2022/09/22 08:21:08;;;;;;;;;;;14.00;99.90;;;;;;5018986;28;19941;-85
2022/09/22 08:23:34;;;;;;;;;;;14.10;99.90;;;;;;5018717;28;19910;-84
2022/09/22 08:26:07;;;;;;;;;;;14.20;99.90;;;;;;5017589;28;19916;-86
2022/09/22 08:28:33;;;;;;;;;;;14.30;99.90;;;;;;5017543;28;19917;-85
2022/09/22 08:30:59;;;;;;;;;;;14.40;99.90;;;;;;5017318;28;19909;-84
2022/09/22 08:33:25;;;;;;;;;;;14.50;99.90;;;;;;5017897;28;19916;-83
2022/09/22 08:35:54;;;;;;;;;;;14.70;99.90;;;;;;5033461;28;19925;-83
2022/09/22 08:38:22;;;;;;;;;;;14.80;99.90;;;;;;5035602;28;19909;-85
2022/09/22 08:41:06;;;;;;;;;;;14.90;99.90;;;;;;5017607;28;19909;-84
2022/09/22 08:43:32;;;;;;;;;;;15.00;99.90;;;;;;5018837;28;19913;-82
2022/09/22 08:46:00;;;;;;;;;;;15.20;99.90;;;;;;5016693;28;19909;-84
2022/09/22 08:54:04;;;;;;;;;;;15.50;99.90;;;;;;5036210;28;19931;-83
2022/09/22 08:56:35;;;;;;;;;;;15.70;99.90;;;;;;5017202;28;19909;-84
2022/09/22 08:59:15;;;;;;;;;;;15.80;99.90;;;;;;5018265;28;19916;-83
2022/09/22 09:01:41;;;;;;;;;;;15.90;99.90;;;;;;5036430;28;19909;-85
2022/09/22 09:04:19;;;;;;;;;;;16.00;99.90;;;;;;5035895;28;19960;-84
2022/09/22 09:06:47;;;;;;;;;;;16.10;99.90;;;;;;5016949;28;20007;-82
2022/09/22 09:09:22;;;;;;;;;;;16.30;99.90;;;;;;5018486;28;20261;-84
2022/09/22 09:12:08;;;;;;;;;;;16.40;99.90;;;;;;5017924;28;19913;-85
2022/09/22 09:14:48;;;;;;;;;;;16.50;99.90;;;;;;5018046;28;19964;-84
2022/09/22 09:17:20;;;;;;;;;;;16.60;99.90;;;;;;5016889;28;19913;-83
2022/09/22 09:19:49;;;;;;;;;;;16.70;99.90;;;;;;5017632;28;19916;-84
2022/09/22 09:22:18;;;;;;;;;;;16.90;99.90;;;;;;5017626;28;19980;-85
2022/09/22 09:24:49;;;;;;;;;;;17.00;99.90;;;;;;5016858;28;19916;-85
2022/09/22 09:27:18;;;;;;;;;;;17.10;99.90;;;;;;5011622;28;19914;-82
2022/09/22 09:29:49;;;;;;;;;;;17.30;99.90;;;;;;5014151;28;20415;-82
2022/09/22 09:32:24;;;;;;;;;;;18.10;99.90;;;;;;5012697;28;19914;-83
2022/09/22 09:34:49;;;;;;;;;;;19.80;99.90;;;;;;5012735;28;19968;-82
2022/09/22 09:37:16;;;;;;;;;;;22.10;99.90;;;;;;5013643;28;19910;-91
2022/09/22 09:39:43;;;;;;;;;;;23.10;99.90;;;;;;5012635;28;19910;-88
2022/09/22 09:42:24;;;;;;;;;;;23.20;99.50;;;;;;5012746;28;19910;-87
2022/09/22 09:44:52;;;;;;;;;;;23.60;97.10;;;;;;5012684;28;20285;-84
2022/09/22 09:47:26;;;;;;;;;;;24.70;94.60;;;;;;5013554;28;19914;-84
2022/09/22 09:49:53;;;;;;;;;;;26.10;91.40;;;;;;5012343;28;20293;-85
2022/09/22 09:52:19;;;;;;;;;;;27.00;83.60;;;;;;5013553;28;19920;-85
2022/09/22 09:54:46;;;;;;;;;;;27.30;79.30;;;;;;5012309;28;19910;-86
2022/09/22 09:57:18;;;;;;;;;;;28.00;71.40;;;;;;5013526;28;19913;-85
2022/09/22 10:02:30;;;;;;;;;;;30.50;59.90;;;;;;5013913;28;19940;-83
2022/09/22 10:05:03;;;;;;;;;;;30.50;56.00;;;;;;5012196;28;19909;-84
2022/09/22 10:07:48;;;;;;;;;;;30.80;54.40;;;;;;5012117;28;19909;-82
2022/09/22 10:10:22;;;;;;;;;;;30.80;51.70;;;;;;5012792;28;20361;-83
2022/09/22 10:12:48;;;;;;;;;;;30.70;51.50;;;;;;5013368;28;19999;-82
2022/09/22 10:15:24;;;;;;;;;;;29.70;50.20;;;;;;5011950;28;19913;-82
2022/09/22 10:17:50;;;;;;;;;;;29.40;50.90;;;;;;5011338;28;19913;-81
2022/09/22 10:20:21;;;;;;;;;;;30.00;51.00;;;;;;5011906;28;19917;-82
2022/09/22 10:22:47;;;;;;;;;;;29.20;50.40;;;;;;5011888;28;19914;-83
2022/09/22 10:25:18;;;;;;;;;;;28.10;50.70;;;;;;5013246;28;19960;-82
2022/09/22 10:27:57;;;;;;;;;;;26.90;50.20;;;;;;5011933;28;19910;-81
2022/09/22 10:30:22;;;;;;;;;;;25.70;51.00;;;;;;5013473;28;19996;-83
2022/09/22 10:33:05;;;;;;;;;;;24.70;53.10;;;;;;5013184;28;19941;-82
2022/09/22 10:35:32;;;;;;;;;;;23.90;53.80;;;;;;5011658;28;19945;-84
2022/09/22 10:38:06;;;;;;;;;;;23.20;56.20;;;;;;5012906;28;19948;-86
2022/09/22 10:40:32;;;;;;;;;;;22.60;55.70;;;;;;5011737;28;19956;-85
2022/09/22 10:42:58;;;;;;;;;;;22.10;58.50;;;;;;5011622;28;19970;-84
2022/09/22 10:45:35;;;;;;;;;;;21.60;59.30;;;;;;5011842;28;19909;-84
2022/09/22 10:48:09;;;;;;;;;;;21.40;59.10;;;;;;5011665;28;20107;-84
2022/09/22 10:50:35;;;;;;;;;;;21.10;61.70;;;;;;5012888;28;20377;-87
2022/09/22 10:53:20;;;;;;;;;;;21.00;61.40;;;;;;5012202;28;19914;-87
2022/09/22 10:56:09;;;;;;;;;;;20.90;64.40;;;;;;5011727;28;19909;-84
2022/09/22 10:58:53;;;;;;;;;;;20.60;61.80;;;;;;4989485;28;19915;-84
2022/09/22 11:01:22;;;;;;;;;;;20.30;60.60;;;;;;5011364;28;19930;-84
2022/09/22 11:03:47;;;;;;;;;;;20.40;65.50;;;;;;5012670;28;19910;-82
2022/09/22 11:14:53;;;;;;;;;;;20.40;65.30;;;;;;5012625;28;19916;-81
2022/09/22 11:17:37;;;;;;;;;;;20.30;65.10;;;;;;5012420;28;19909;-82
2022/09/22 11:20:26;;;;;;;;;;;20.30;63.60;;;;;;5011184;28;19909;-84
2022/09/22 11:23:11;;;;;;;;;;;20.30;67.70;;;;;;5011175;28;20388;-84
2022/09/22 11:25:54;;;;;;;;;;;20.20;63.30;;;;;;5010881;28;19909;-84
2022/09/22 11:28:25;;;;;;;;;;;20.30;65.80;;;;;;5011667;28;19932;-84
2022/09/22 11:30:52;;;;;;;;;;;20.40;66.90;;;;;;5015070;28;20393;-84
2022/09/22 11:33:28;;;;;;;;;;;20.30;60.50;;;;;;5015062;28;19964;-85
2022/09/22 11:36:16;;;;;;;;;;;20.50;64.60;;;;;;5016058;28;19909;-84
2022/09/22 11:38:57;;;;;;;;;;;20.60;66.10;;;;;;4987698;28;20290;-83
2022/09/22 11:41:29;;;;;;;;;;;20.60;65.90;;;;;;5014813;28;19920;-84
2022/09/22 11:44:15;;;;;;;;;;;20.70;65.90;;;;;;5014807;28;19909;-84
2022/09/22 11:46:46;;;;;;;;;;;20.80;67.70;;;;;;4991042;28;19972;-84
2022/09/22 11:49:33;;;;;;;;;;;20.80;66.80;;;;;;5014829;28;19948;-85
2022/09/22 11:52:14;;;;;;;;;;;20.70;65.00;;;;;;5016038;28;19941;-84
2022/09/22 11:54:44;;;;;;;;;;;20.60;60.60;;;;;;5015704;28;20008;-83
2022/09/22 11:57:12;;;;;;;;;;;20.60;62.40;;;;;;5019481;28;19959;-82
2022/09/22 11:59:47;;;;;;;;;;;20.70;63.70;;;;;;5037468;28;19909;-84
2022/09/22 12:02:17;;;;;;;;;;;20.60;62.10;;;;;;5019155;28;19913;-83
2022/09/22 12:04:45;;;;;;;;;;;20.60;59.90;;;;;;5036991;28;19941;-83
2022/09/22 12:07:16;;;;;;;;;;;20.50;60.90;;;;;;5018278;28;19913;-83
2022/09/22 12:09:47;;;;;;;;;;;20.50;64.80;;;;;;5018708;28;19909;-83
2022/09/22 12:12:15;;;;;;;;;;;20.60;66.70;;;;;;5036272;28;19916;-83
2022/09/22 12:14:41;;;;;;;;;;;20.70;63.30;;;;;;5018420;28;19913;-83
2022/09/22 12:17:10;;;;;;;;;;;20.80;61.30;;;;;;5017722;28;19917;-84
2022/09/22 12:19:35;;;;;;;;;;;20.90;63.20;;;;;;5018723;28;19909;-83
2022/09/22 12:22:03;;;;;;;;;;;20.90;63.20;;;;;;5035933;28;20356;-84
2022/09/22 12:24:30;;;;;;;;;;;20.90;62.90;;;;;;5018136;28;20335;-83
2022/09/22 12:26:55;;;;;;;;;;;21.10;61.70;;;;;;5035366;28;20001;-84
2022/09/22 12:29:26;;;;;;;;;;;21.10;63.20;;;;;;5036684;28;19957;-82
2022/09/22 12:31:54;;;;;;;;;;;21.30;61.80;;;;;;5040352;28;20388;-87
2022/09/22 12:34:21;;;;;;;;;;;21.40;59.60;;;;;;5019869;28;19909;-86
2022/09/22 12:36:49;;;;;;;;;;;21.40;59.90;;;;;;5018129;28;19909;-85
2022/09/22 12:39:22;;;;;;;;;;;21.40;62.00;;;;;;5015421;28;19920;-85
2022/09/22 12:41:47;;;;;;;;;;;21.50;59.70;;;;;;5019470;28;19913;-86
2022/09/22 12:44:20;;;;;;;;;;;21.50;59.50;;;;;;5020778;28;19920;-85
2022/09/22 12:46:46;;;;;;;;;;;21.70;59.10;;;;;;5018521;28;19909;-84
2022/09/22 12:49:14;;;;;;;;;;;22.90;57.60;;;;;;5037800;28;20329;-86
2022/09/22 12:51:40;;;;;;;;;;;23.30;58.00;;;;;;5018653;28;20346;-86
2022/09/22 12:54:21;;;;;;;;;;;23.20;56.80;;;;;;5018791;28;20008;-86
2022/09/22 12:56:59;;;;;;;;;;;23.00;57.30;;;;;;5019265;28;19970;-86
2022/09/22 12:59:34;;;;;;;;;;;22.70;55.00;;;;;;5021248;28;19909;-84
2022/09/22 13:02:20;;;;;;;;;;;22.40;53.70;;;;;;5019687;28;19913;-86
2022/09/22 13:04:48;;;;;;;;;;;22.20;56.10;;;;;;5009192;28;19909;-86
2022/09/22 13:07:32;;;;;;;;;;;22.00;57.30;;;;;;5033733;28;19909;-84
2022/09/22 13:10:16;;;;;;;;;;;22.00;57.10;;;;;;5016080;28;19956;-84
2022/09/22 13:13:02;;;;;;;;;;;21.80;56.10;;;;;;5034400;28;20364;-83
2022/09/22 13:15:27;;;;;;;;;;;21.80;57.80;;;;;;5016352;28;20261;-84
2022/09/22 13:17:53;;;;;;;;;;;21.70;58.30;;;;;;5033558;28;19955;-82
2022/09/22 13:20:19;;;;;;;;;;;21.70;55.50;;;;;;5015896;28;19910;-82
2022/09/22 13:22:44;;;;;;;;;;;21.60;56.70;;;;;;5015867;28;19914;-82
2022/09/22 13:25:28;;;;;;;;;;;21.60;57.50;;;;;;5033079;28;19916;-83
2022/09/22 13:28:12;;;;;;;;;;;21.60;55.80;;;;;;5033365;28;19909;-86
2022/09/22 13:30:38;;;;;;;;;;;21.60;57.00;;;;;;5016337;28;19917;-85
2022/09/22 13:33:04;;;;;;;;;;;21.60;57.00;;;;;;5009633;28;19917;-84
2022/09/22 13:35:32;;;;;;;;;;;21.70;57.20;;;;;;5012516;28;19910;-86
2022/09/22 13:37:58;;;;;;;;;;;21.90;57.20;;;;;;4995737;28;19910;-86
2022/09/22 13:40:25;;;;;;;;;;;22.40;56.40;;;;;;4995916;28;19919;-85
2022/09/22 13:42:51;;;;;;;;;;;22.90;56.10;;;;;;4996210;28;19918;-84
2022/09/22 13:45:20;;;;;;;;;;;22.90;55.90;;;;;;5013393;28;19916;-84
2022/09/22 13:47:46;;;;;;;;;;;22.80;56.50;;;;;;5011583;28;19913;-83
2022/09/22 13:50:14;;;;;;;;;;;22.70;55.70;;;;;;4995887;28;19913;-82
2022/09/22 13:52:40;;;;;;;;;;;22.60;56.70;;;;;;5012687;28;19957;-82
2022/09/22 13:55:13;;;;;;;;;;;22.60;55.40;;;;;;5013468;28;19968;-81
2022/09/22 13:57:40;;;;;;;;;;;22.40;57.50;;;;;;4995147;28;19963;-82
2022/09/22 14:00:08;;;;;;;;;;;22.40;57.60;;;;;;4995920;28;20426;-82
2022/09/22 14:02:33;;;;;;;;;;;22.50;58.80;;;;;;5013459;28;19913;-83
2022/09/22 14:05:00;;;;;;;;;;;22.70;57.00;;;;;;5011619;28;19909;-82
2022/09/22 14:07:29;;;;;;;;;;;23.20;59.10;;;;;;4994868;28;19910;-83
2022/09/22 14:09:55;;;;;;;;;;;24.40;58.40;;;;;;5013040;28;19910;-83
2022/09/22 14:12:21;;;;;;;;;;;26.50;55.80;;;;;;4995676;28;20376;-83
2022/09/22 14:14:46;;;;;;;;;;;27.90;52.60;;;;;;5011737;28;19909;-83
2022/09/22 14:17:14;;;;;;;;;;;29.50;50.90;;;;;;5012495;28;19920;-85
2022/09/22 14:19:44;;;;;;;;;;;30.20;46.00;;;;;;4995150;28;19909;-84
2022/09/22 14:22:20;;;;;;;;;;;30.60;45.90;;;;;;4995376;28;19963;-85
2022/09/22 14:24:47;;;;;;;;;;;31.10;45.60;;;;;;5012664;28;19910;-84
2022/09/22 14:27:42;;;;;;;;;;;32.00;42.80;;;;;;4994518;28;20426;-87
2022/09/22 14:30:18;;;;;;;;;;;33.20;42.80;;;;;;4990930;28;19940;-87
2022/09/22 14:32:51;;;;;;;;;;;34.70;39.50;;;;;;4995823;28;19955;-85
2022/09/22 14:35:22;;;;;;;;;;;35.70;35.90;;;;;;4997292;28;19970;-88
2022/09/22 14:37:50;;;;;;;;;;;36.80;34.90;;;;;;4995290;28;20484;-83
2022/09/22 14:40:18;;;;;;;;;;;37.90;34.20;;;;;;5012482;28;19914;-83
2022/09/22 14:43:09;;;;;;;;;;;38.70;32.10;;;;;;4995370;28;19996;-87
2022/09/22 14:45:55;;;;;;;;;;;39.50;31.90;;;;;;4996196;28;20266;-85
2022/09/22 14:48:26;;;;;;;;;;;39.20;28.60;;;;;;4995280;28;20389;-84
2022/09/22 14:50:53;;;;;;;;;;;39.10;29.20;;;;;;4995173;28;20272;-84
2022/09/22 14:53:25;;;;;;;;;;;39.50;28.90;;;;;;5012406;28;19916;-87